sensor_id;sensor_type;location;lat;lon;timestamp;temperature;humidity
70214;DHT22;60138;55.808;37.078;2023-05-18T00:02:08;12.06;51.55
70214;DHT22;60138;55.808;37.078;2023-05-18T00:04:35;12.02;52.08
70214;DHT22;60138;55.808;37.078;2023-05-18T00:07:01;12.00;52.03
70214;DHT22;60138;55.808;37.078;2023-05-18T00:09:28;11.91;52.18
70214;DHT22;60138;55.808;37.078;2023-05-18T00:11:54;11.89;52.40
70214;DHT22;60138;55.808;37.078;2023-05-18T00:14:20;11.86;52.56
70214;DHT22;60138;55.808;37.078;2023-05-18T00:16:47;11.83;52.75
70214;DHT22;60138;55.808;37.078;2023-05-18T00:19:13;11.79;52.69
70214;DHT22;60138;55.808;37.078;2023-05-18T00:21:40;11.75;52.76
70214;DHT22;60138;55.808;37.078;2023-05-18T00:24:07;11.70;52.30
70214;DHT22;60138;55.808;37.078;2023-05-18T00:26:33;11.64;52.36
70214;DHT22;60138;55.808;37.078;2023-05-18T00:28:59;11.60;52.85
70214;DHT22;60138;55.808;37.078;2023-05-18T00:31:24;11.58;53.26
70214;DHT22;60138;55.808;37.078;2023-05-18T00:33:50;11.54;52.66
70214;DHT22;60138;55.808;37.078;2023-05-18T00:36:16;11.47;53.23
70214;DHT22;60138;55.808;37.078;2023-05-18T00:38:41;11.46;52.81
70214;DHT22;60138;55.808;37.078;2023-05-18T00:41:08;11.42;53.22
70214;DHT22;60138;55.808;37.078;2023-05-18T00:43:34;11.36;53.25
70214;DHT22;60138;55.808;37.078;2023-05-18T00:45:59;11.31;53.33
70214;DHT22;60138;55.808;37.078;2023-05-18T00:48:25;11.28;53.40
70214;DHT22;60138;55.808;37.078;2023-05-18T00:50:50;11.26;53.56
70214;DHT22;60138;55.808;37.078;2023-05-18T00:53:16;11.20;53.54
70214;DHT22;60138;55.808;37.078;2023-05-18T00:55:42;11.17;53.39
70214;DHT22;60138;55.808;37.078;2023-05-18T00:58:08;11.14;53.94
70214;DHT22;60138;55.808;37.078;2023-05-18T01:00:34;11.14;53.68
70214;DHT22;60138;55.808;37.078;2023-05-18T01:03:03;11.13;53.93
70214;DHT22;60138;55.808;37.078;2023-05-18T01:05:28;11.12;54.06
70214;DHT22;60138;55.808;37.078;2023-05-18T01:07:54;11.11;54.40
70214;DHT22;60138;55.808;37.078;2023-05-18T01:10:20;11.10;54.10
70214;DHT22;60138;55.808;37.078;2023-05-18T01:13:04;11.08;55.00
70214;DHT22;60138;55.808;37.078;2023-05-18T01:15:34;11.03;54.25
70214;DHT22;60138;55.808;37.078;2023-05-18T01:18:12;11.00;56.29
70214;DHT22;60138;55.808;37.078;2023-05-18T01:20:49;10.96;55.96
70214;DHT22;60138;55.808;37.078;2023-05-18T01:26:19;10.87;56.29
70214;DHT22;60138;55.808;37.078;2023-05-18T01:28:47;10.83;55.14
70214;DHT22;60138;55.808;37.078;2023-05-18T01:31:14;10.81;55.10
70214;DHT22;60138;55.808;37.078;2023-05-18T01:33:40;10.78;55.20
70214;DHT22;60138;55.808;37.078;2023-05-18T01:36:06;10.77;55.20
70214;DHT22;60138;55.808;37.078;2023-05-18T01:38:32;10.77;55.32
70214;DHT22;60138;55.808;37.078;2023-05-18T01:41:10;10.78;55.39
70214;DHT22;60138;55.808;37.078;2023-05-18T01:51:44;10.75;55.41
70214;DHT22;60138;55.808;37.078;2023-05-18T01:54:10;10.75;55.34
70214;DHT22;60138;55.808;37.078;2023-05-18T01:56:38;10.79;55.46
70214;DHT22;60138;55.808;37.078;2023-05-18T01:59:06;10.82;55.52
70214;DHT22;60138;55.808;37.078;2023-05-18T02:01:32;10.87;55.61
70214;DHT22;60138;55.808;37.078;2023-05-18T02:03:58;10.92;55.87
70214;DHT22;60138;55.808;37.078;2023-05-18T02:06:24;10.95;55.87
70214;DHT22;60138;55.808;37.078;2023-05-18T02:08:50;10.97;55.78
70214;DHT22;60138;55.808;37.078;2023-05-18T02:11:16;10.99;55.98
70214;DHT22;60138;55.808;37.078;2023-05-18T02:13:42;11.00;56.09
70214;DHT22;60138;55.808;37.078;2023-05-18T02:16:08;11.04;56.07
70214;DHT22;60138;55.808;37.078;2023-05-18T02:18:34;11.08;56.84
70214;DHT22;60138;55.808;37.078;2023-05-18T02:21:00;11.13;57.44
70214;DHT22;60138;55.808;37.078;2023-05-18T02:23:26;11.17;57.29
70214;DHT22;60138;55.808;37.078;2023-05-18T02:25:52;11.23;56.35
70214;DHT22;60138;55.808;37.078;2023-05-18T02:28:17;11.27;56.10
70214;DHT22;60138;55.808;37.078;2023-05-18T02:30:44;11.31;56.27
70214;DHT22;60138;55.808;37.078;2023-05-18T02:33:09;11.38;55.90
70214;DHT22;60138;55.808;37.078;2023-05-18T02:35:35;11.42;55.66
70214;DHT22;60138;55.808;37.078;2023-05-18T02:38:02;11.49;55.37
70214;DHT22;60138;55.808;37.078;2023-05-18T02:40:28;11.56;55.68
70214;DHT22;60138;55.808;37.078;2023-05-18T02:42:54;11.61;55.54
70214;DHT22;60138;55.808;37.078;2023-05-18T02:45:20;11.66;55.90
70214;DHT22;60138;55.808;37.078;2023-05-18T02:47:46;11.69;55.77
70214;DHT22;60138;55.808;37.078;2023-05-18T02:50:13;11.73;55.73
70214;DHT22;60138;55.808;37.078;2023-05-18T02:52:42;11.75;56.15
70214;DHT22;60138;55.808;37.078;2023-05-18T02:55:08;11.82;55.81
70214;DHT22;60138;55.808;37.078;2023-05-18T02:57:50;11.88;55.81
70214;DHT22;60138;55.808;37.078;2023-05-18T03:00:21;11.96;55.61
70214;DHT22;60138;55.808;37.078;2023-05-18T03:02:47;12.03;55.75
70214;DHT22;60138;55.808;37.078;2023-05-18T03:05:13;12.11;55.46
70214;DHT22;60138;55.808;37.078;2023-05-18T03:07:39;12.18;55.45
70214;DHT22;60138;55.808;37.078;2023-05-18T03:10:05;12.27;55.12
70214;DHT22;60138;55.808;37.078;2023-05-18T03:12:33;12.32;57.09
70214;DHT22;60138;55.808;37.078;2023-05-18T03:14:59;12.37;57.37
70214;DHT22;60138;55.808;37.078;2023-05-18T03:17:25;12.46;57.04
70214;DHT22;60138;55.808;37.078;2023-05-18T03:19:51;12.50;56.29
70214;DHT22;60138;55.808;37.078;2023-05-18T03:22:17;12.55;55.94
70214;DHT22;60138;55.808;37.078;2023-05-18T03:24:44;12.58;55.53
70214;DHT22;60138;55.808;37.078;2023-05-18T03:27:14;12.63;55.25
70214;DHT22;60138;55.808;37.078;2023-05-18T03:29:40;12.67;55.33
70214;DHT22;60138;55.808;37.078;2023-05-18T03:32:06;12.72;55.20
70214;DHT22;60138;55.808;37.078;2023-05-18T03:34:31;12.76;55.10
70214;DHT22;60138;55.808;37.078;2023-05-18T03:36:58;12.81;55.08
70214;DHT22;60138;55.808;37.078;2023-05-18T03:39:23;12.89;54.89
70214;DHT22;60138;55.808;37.078;2023-05-18T03:41:49;12.93;54.90
70214;DHT22;60138;55.808;37.078;2023-05-18T03:44:15;13.03;54.75
70214;DHT22;60138;55.808;37.078;2023-05-18T03:46:41;13.11;54.65
70214;DHT22;60138;55.808;37.078;2023-05-18T03:49:07;13.17;54.49
70214;DHT22;60138;55.808;37.078;2023-05-18T03:51:37;13.26;54.53
70214;DHT22;60138;55.808;37.078;2023-05-18T03:54:03;13.37;54.68
70214;DHT22;60138;55.808;37.078;2023-05-18T03:56:29;13.45;54.37
70214;DHT22;60138;55.808;37.078;2023-05-18T03:58:55;13.54;54.49
70214;DHT22;60138;55.808;37.078;2023-05-18T04:01:21;13.64;54.36
70214;DHT22;60138;55.808;37.078;2023-05-18T04:03:47;13.78;54.36
70214;DHT22;60138;55.808;37.078;2023-05-18T04:06:13;13.89;53.88
70214;DHT22;60138;55.808;37.078;2023-05-18T04:08:39;14.00;53.63
70214;DHT22;60138;55.808;37.078;2023-05-18T04:11:05;14.13;53.12
70214;DHT22;60138;55.808;37.078;2023-05-18T04:13:30;14.23;53.46
70214;DHT22;60138;55.808;37.078;2023-05-18T04:15:56;14.30;52.89
70214;DHT22;60138;55.808;37.078;2023-05-18T04:18:23;14.39;52.85
70214;DHT22;60138;55.808;37.078;2023-05-18T04:20:48;14.49;52.77
70214;DHT22;60138;55.808;37.078;2023-05-18T04:23:14;14.56;52.88
70214;DHT22;60138;55.808;37.078;2023-05-18T04:25:40;14.62;52.85
70214;DHT22;60138;55.808;37.078;2023-05-18T04:28:06;14.71;53.05
70214;DHT22;60138;55.808;37.078;2023-05-18T04:30:32;14.80;53.02
70214;DHT22;60138;55.808;37.078;2023-05-18T04:32:59;14.88;52.81
70214;DHT22;60138;55.808;37.078;2023-05-18T04:35:26;14.97;52.62
70214;DHT22;60138;55.808;37.078;2023-05-18T04:37:52;15.02;52.38
70214;DHT22;60138;55.808;37.078;2023-05-18T04:40:19;15.13;55.42
70214;DHT22;60138;55.808;37.078;2023-05-18T04:42:47;15.31;52.67
70214;DHT22;60138;55.808;37.078;2023-05-18T04:45:20;15.46;51.82
70214;DHT22;60138;55.808;37.078;2023-05-18T04:47:48;15.57;51.24
70214;DHT22;60138;55.808;37.078;2023-05-18T04:50:18;15.63;50.75
70214;DHT22;60138;55.808;37.078;2023-05-18T04:52:45;15.69;50.62
70214;DHT22;60138;55.808;37.078;2023-05-18T04:55:11;15.77;50.18
70214;DHT22;60138;55.808;37.078;2023-05-18T04:57:37;15.85;49.90
70214;DHT22;60138;55.808;37.078;2023-05-18T05:00:03;15.93;49.79
70214;DHT22;60138;55.808;37.078;2023-05-18T05:02:30;15.98;49.89
70214;DHT22;60138;55.808;37.078;2023-05-18T05:04:56;16.05;49.47
70214;DHT22;60138;55.808;37.078;2023-05-18T05:07:22;16.17;49.34
70214;DHT22;60138;55.808;37.078;2023-05-18T05:09:47;16.29;49.56
70214;DHT22;60138;55.808;37.078;2023-05-18T05:12:13;16.47;49.01
70214;DHT22;60138;55.808;37.078;2023-05-18T05:14:39;16.57;49.34
70214;DHT22;60138;55.808;37.078;2023-05-18T05:17:04;16.61;49.23
70214;DHT22;60138;55.808;37.078;2023-05-18T05:19:30;16.67;49.34
70214;DHT22;60138;55.808;37.078;2023-05-18T05:21:56;16.78;49.02
70214;DHT22;60138;55.808;37.078;2023-05-18T05:24:23;16.88;48.93
70214;DHT22;60138;55.808;37.078;2023-05-18T05:26:49;17.00;48.28
70214;DHT22;60138;55.808;37.078;2023-05-18T05:29:15;17.06;47.99
70214;DHT22;60138;55.808;37.078;2023-05-18T05:31:41;17.19;48.13
70214;DHT22;60138;55.808;37.078;2023-05-18T05:34:06;17.26;47.73
70214;DHT22;60138;55.808;37.078;2023-05-18T05:36:33;17.37;47.53
70214;DHT22;60138;55.808;37.078;2023-05-18T05:38:58;17.48;47.04
70214;DHT22;60138;55.808;37.078;2023-05-18T05:41:24;17.58;47.67
70214;DHT22;60138;55.808;37.078;2023-05-18T05:43:51;17.64;47.04
70214;DHT22;60138;55.808;37.078;2023-05-18T05:46:17;17.70;46.48
70214;DHT22;60138;55.808;37.078;2023-05-18T05:48:43;17.82;46.01
70214;DHT22;60138;55.808;37.078;2023-05-18T05:51:09;17.94;45.85
70214;DHT22;60138;55.808;37.078;2023-05-18T05:53:34;17.96;45.96
70214;DHT22;60138;55.808;37.078;2023-05-18T05:56:02;18.05;45.95
70214;DHT22;60138;55.808;37.078;2023-05-18T05:58:30;18.11;46.00
70214;DHT22;60138;55.808;37.078;2023-05-18T06:00:58;18.19;45.74
70214;DHT22;60138;55.808;37.078;2023-05-18T06:03:24;18.30;45.64
70214;DHT22;60138;55.808;37.078;2023-05-18T06:05:50;18.42;45.28
70214;DHT22;60138;55.808;37.078;2023-05-18T06:08:18;18.53;45.39
70214;DHT22;60138;55.808;37.078;2023-05-18T06:10:45;18.59;46.23
70214;DHT22;60138;55.808;37.078;2023-05-18T06:13:12;18.70;44.78
70214;DHT22;60138;55.808;37.078;2023-05-18T06:15:56;18.77;44.37
70214;DHT22;60138;55.808;37.078;2023-05-18T06:18:24;18.80;44.14
70214;DHT22;60138;55.808;37.078;2023-05-18T06:20:53;18.87;43.70
70214;DHT22;60138;55.808;37.078;2023-05-18T06:23:21;18.95;43.46
70214;DHT22;60138;55.808;37.078;2023-05-18T06:26:06;18.99;43.39
70214;DHT22;60138;55.808;37.078;2023-05-18T06:28:36;19.08;43.32
70214;DHT22;60138;55.808;37.078;2023-05-18T06:31:27;19.15;42.81
70214;DHT22;60138;55.808;37.078;2023-05-18T06:34:14;19.25;42.69
70214;DHT22;60138;55.808;37.078;2023-05-18T06:36:39;19.35;42.54
70214;DHT22;60138;55.808;37.078;2023-05-18T06:39:05;19.43;42.45
70214;DHT22;60138;55.808;37.078;2023-05-18T06:41:31;19.51;42.75
70214;DHT22;60138;55.808;37.078;2023-05-18T06:43:57;19.68;42.67
70214;DHT22;60138;55.808;37.078;2023-05-18T06:46:29;19.83;41.53
70214;DHT22;60138;55.808;37.078;2023-05-18T06:49:00;19.90;41.29
70214;DHT22;60138;55.808;37.078;2023-05-18T06:51:27;20.00;41.28
70214;DHT22;60138;55.808;37.078;2023-05-18T06:53:54;20.09;40.60
70214;DHT22;60138;55.808;37.078;2023-05-18T06:56:20;20.17;39.99
70214;DHT22;60138;55.808;37.078;2023-05-18T06:58:46;20.26;39.73
70214;DHT22;60138;55.808;37.078;2023-05-18T07:01:13;20.31;39.14
70214;DHT22;60138;55.808;37.078;2023-05-18T07:03:38;20.37;39.29
70214;DHT22;60138;55.808;37.078;2023-05-18T07:06:04;20.41;39.52
70214;DHT22;60138;55.808;37.078;2023-05-18T07:08:31;20.55;38.22
70214;DHT22;60138;55.808;37.078;2023-05-18T07:10:57;20.66;38.20
70214;DHT22;60138;55.808;37.078;2023-05-18T07:13:23;20.75;38.30
70214;DHT22;60138;55.808;37.078;2023-05-18T07:15:49;20.87;37.68
70214;DHT22;60138;55.808;37.078;2023-05-18T07:18:15;21.07;37.56
70214;DHT22;60138;55.808;37.078;2023-05-18T07:20:41;21.33;37.83
70214;DHT22;60138;55.808;37.078;2023-05-18T07:23:07;21.65;37.24
70214;DHT22;60138;55.808;37.078;2023-05-18T07:25:32;21.90;36.30
70214;DHT22;60138;55.808;37.078;2023-05-18T07:27:58;22.11;36.38
70214;DHT22;60138;55.808;37.078;2023-05-18T07:30:24;22.32;35.82
70214;DHT22;60138;55.808;37.078;2023-05-18T07:32:50;22.44;35.69
70214;DHT22;60138;55.808;37.078;2023-05-18T07:35:35;22.65;36.01
70214;DHT22;60138;55.808;37.078;2023-05-18T07:38:00;22.85;35.47
70214;DHT22;60138;55.808;37.078;2023-05-18T07:40:26;23.01;34.80
70214;DHT22;60138;55.808;37.078;2023-05-18T07:42:52;23.15;34.95
70214;DHT22;60138;55.808;37.078;2023-05-18T07:45:20;23.27;34.21
70214;DHT22;60138;55.808;37.078;2023-05-18T07:47:46;23.41;34.24
70214;DHT22;60138;55.808;37.078;2023-05-18T07:50:12;23.61;34.35
70214;DHT22;60138;55.808;37.078;2023-05-18T07:52:37;23.80;33.71
70214;DHT22;60138;55.808;37.078;2023-05-18T07:55:03;23.95;33.40
70214;DHT22;60138;55.808;37.078;2023-05-18T07:57:30;24.09;33.71
70214;DHT22;60138;55.808;37.078;2023-05-18T07:59:55;24.21;33.20
70214;DHT22;60138;55.808;37.078;2023-05-18T08:02:21;24.28;33.06
70214;DHT22;60138;55.808;37.078;2023-05-18T08:04:47;24.28;33.88
70214;DHT22;60138;55.808;37.078;2023-05-18T08:07:13;24.27;32.62
70214;DHT22;60138;55.808;37.078;2023-05-18T08:09:39;24.28;32.54
70214;DHT22;60138;55.808;37.078;2023-05-18T08:12:06;24.32;29.84
70214;DHT22;60138;55.808;37.078;2023-05-18T08:14:32;24.38;31.49
70214;DHT22;60138;55.808;37.078;2023-05-18T08:16:58;24.53;31.91
70214;DHT22;60138;55.808;37.078;2023-05-18T08:19:24;24.70;30.72
70214;DHT22;60138;55.808;37.078;2023-05-18T08:21:50;24.89;32.54
70214;DHT22;60138;55.808;37.078;2023-05-18T08:24:16;24.95;30.35
70214;DHT22;60138;55.808;37.078;2023-05-18T08:26:42;24.97;31.03
70214;DHT22;60138;55.808;37.078;2023-05-18T08:29:07;24.90;31.60
70214;DHT22;60138;55.808;37.078;2023-05-18T08:31:34;24.88;31.08
70214;DHT22;60138;55.808;37.078;2023-05-18T08:33:59;24.88;31.22
70214;DHT22;60138;55.808;37.078;2023-05-18T08:36:25;24.88;31.53
70214;DHT22;60138;55.808;37.078;2023-05-18T08:38:51;24.84;30.95
70214;DHT22;60138;55.808;37.078;2023-05-18T08:41:29;24.65;29.71
70214;DHT22;60138;55.808;37.078;2023-05-18T08:44:19;24.38;30.40
70214;DHT22;60138;55.808;37.078;2023-05-18T08:46:48;24.09;30.73
70214;DHT22;60138;55.808;37.078;2023-05-18T08:49:16;23.81;31.69
70214;DHT22;60138;55.808;37.078;2023-05-18T08:51:45;23.56;31.47
70214;DHT22;60138;55.808;37.078;2023-05-18T08:54:14;23.38;31.52
70214;DHT22;60138;55.808;37.078;2023-05-18T08:56:45;23.30;31.55
70214;DHT22;60138;55.808;37.078;2023-05-18T08:59:11;23.30;32.29
70214;DHT22;60138;55.808;37.078;2023-05-18T09:01:39;23.35;32.11
70214;DHT22;60138;55.808;37.078;2023-05-18T09:04:05;23.45;32.65
70214;DHT22;60138;55.808;37.078;2023-05-18T09:06:31;23.54;31.90
70214;DHT22;60138;55.808;37.078;2023-05-18T09:08:57;23.65;31.61
70214;DHT22;60138;55.808;37.078;2023-05-18T09:11:25;23.76;31.73
70214;DHT22;60138;55.808;37.078;2023-05-18T09:13:51;23.89;31.32
70214;DHT22;60138;55.808;37.078;2023-05-18T09:16:17;24.06;29.66
70214;DHT22;60138;55.808;37.078;2023-05-18T09:18:43;24.20;31.02
70214;DHT22;60138;55.808;37.078;2023-05-18T09:21:10;24.35;31.14
70214;DHT22;60138;55.808;37.078;2023-05-18T09:23:39;24.44;31.55
70214;DHT22;60138;55.808;37.078;2023-05-18T09:26:05;24.41;31.51
70214;DHT22;60138;55.808;37.078;2023-05-18T09:28:38;24.35;30.98
70214;DHT22;60138;55.808;37.078;2023-05-18T09:31:06;24.31;31.40
70214;DHT22;60138;55.808;37.078;2023-05-18T09:33:33;24.29;31.24
70214;DHT22;60138;55.808;37.078;2023-05-18T09:36:06;24.34;30.73
70214;DHT22;60138;55.808;37.078;2023-05-18T09:38:42;24.47;30.45
70214;DHT22;60138;55.808;37.078;2023-05-18T09:41:09;24.66;30.65
70214;DHT22;60138;55.808;37.078;2023-05-18T09:43:35;24.97;30.61
70214;DHT22;60138;55.808;37.078;2023-05-18T09:46:05;25.30;29.51
70214;DHT22;60138;55.808;37.078;2023-05-18T09:48:41;25.57;29.46
70214;DHT22;60138;55.808;37.078;2023-05-18T09:51:10;25.80;29.49
70214;DHT22;60138;55.808;37.078;2023-05-18T09:53:36;25.93;29.19
70214;DHT22;60138;55.808;37.078;2023-05-18T09:56:06;25.96;28.55
70214;DHT22;60138;55.808;37.078;2023-05-18T09:58:34;25.89;25.29
70214;DHT22;60138;55.808;37.078;2023-05-18T10:01:01;25.82;27.95
70214;DHT22;60138;55.808;37.078;2023-05-18T10:03:32;25.83;27.98
70214;DHT22;60138;55.808;37.078;2023-05-18T10:06:06;25.83;28.07
70214;DHT22;60138;55.808;37.078;2023-05-18T10:08:33;25.75;27.16
70214;DHT22;60138;55.808;37.078;2023-05-18T10:11:00;25.80;28.41
70214;DHT22;60138;55.808;37.078;2023-05-18T10:13:28;25.92;27.05
70214;DHT22;60138;55.808;37.078;2023-05-18T10:15:55;26.15;28.78
70214;DHT22;60138;55.808;37.078;2023-05-18T10:18:23;26.41;26.76
70214;DHT22;60138;55.808;37.078;2023-05-18T10:20:50;26.53;25.98
70214;DHT22;60138;55.808;37.078;2023-05-18T10:23:18;26.49;24.14
70214;DHT22;60138;55.808;37.078;2023-05-18T10:25:46;26.51;25.00
70214;DHT22;60138;55.808;37.078;2023-05-18T10:28:22;26.53;26.85
70214;DHT22;60138;55.808;37.078;2023-05-18T10:30:58;26.56;26.31
70214;DHT22;60138;55.808;37.078;2023-05-18T10:33:25;26.31;24.76
70214;DHT22;60138;55.808;37.078;2023-05-18T10:35:52;26.15;25.69
70214;DHT22;60138;55.808;37.078;2023-05-18T10:38:26;26.16;27.62
70214;DHT22;60138;55.808;37.078;2023-05-18T10:40:54;26.15;25.66
70214;DHT22;60138;55.808;37.078;2023-05-18T10:43:22;26.11;27.87
70214;DHT22;60138;55.808;37.078;2023-05-18T10:45:52;26.13;26.86
70214;DHT22;60138;55.808;37.078;2023-05-18T10:48:19;26.20;26.97
70214;DHT22;60138;55.808;37.078;2023-05-18T10:50:51;26.33;26.97
70214;DHT22;60138;55.808;37.078;2023-05-18T10:53:19;26.56;27.36
70214;DHT22;60138;55.808;37.078;2023-05-18T10:55:52;26.86;27.73
70214;DHT22;60138;55.808;37.078;2023-05-18T10:58:26;27.17;27.81
70214;DHT22;60138;55.808;37.078;2023-05-18T11:00:55;27.39;27.35
70214;DHT22;60138;55.808;37.078;2023-05-18T11:03:21;27.52;27.07
70214;DHT22;60138;55.808;37.078;2023-05-18T11:06:01;27.64;27.52
70214;DHT22;60138;55.808;37.078;2023-05-18T11:08:26;27.64;26.20
70214;DHT22;60138;55.808;37.078;2023-05-18T11:11:03;27.61;26.49
70214;DHT22;60138;55.808;37.078;2023-05-18T11:13:30;27.75;27.62
70214;DHT22;60138;55.808;37.078;2023-05-18T11:18:50;27.82;25.49
70214;DHT22;60138;55.808;37.078;2023-05-18T11:24:30;27.81;25.04
70214;DHT22;60138;55.808;37.078;2023-05-18T11:26:59;27.85;25.99
70214;DHT22;60138;55.808;37.078;2023-05-18T11:29:33;27.85;25.70
70214;DHT22;60138;55.808;37.078;2023-05-18T11:31:59;27.86;26.10
70214;DHT22;60138;55.808;37.078;2023-05-18T11:34:45;27.76;24.58
70214;DHT22;60138;55.808;37.078;2023-05-18T11:37:14;27.75;26.23
70214;DHT22;60138;55.808;37.078;2023-05-18T11:39:41;27.80;26.13
70214;DHT22;60138;55.808;37.078;2023-05-18T11:42:10;27.79;25.14
70214;DHT22;60138;55.808;37.078;2023-05-18T11:44:36;27.75;25.77
70214;DHT22;60138;55.808;37.078;2023-05-18T11:47:04;27.78;26.20
70214;DHT22;60138;55.808;37.078;2023-05-18T11:49:32;27.85;26.01
70214;DHT22;60138;55.808;37.078;2023-05-18T11:52:04;27.83;24.53
70214;DHT22;60138;55.808;37.078;2023-05-18T11:54:34;27.63;23.41
70214;DHT22;60138;55.808;37.078;2023-05-18T11:57:02;27.55;25.20
70214;DHT22;60138;55.808;37.078;2023-05-18T11:59:39;27.93;25.33
70214;DHT22;60138;55.808;37.078;2023-05-18T12:02:05;28.24;25.41
70214;DHT22;60138;55.808;37.078;2023-05-18T12:04:32;28.26;21.36
70214;DHT22;60138;55.808;37.078;2023-05-18T12:06:58;28.06;21.42
70214;DHT22;60138;55.808;37.078;2023-05-18T12:09:24;27.84;22.53
70214;DHT22;60138;55.808;37.078;2023-05-18T12:11:51;27.82;24.13
70214;DHT22;60138;55.808;37.078;2023-05-18T12:14:20;28.10;23.67
70214;DHT22;60138;55.808;37.078;2023-05-18T12:16:47;29.57;20.55
70214;DHT22;60138;55.808;37.078;2023-05-18T12:19:13;29.71;20.97
70214;DHT22;60138;55.808;37.078;2023-05-18T12:21:38;29.89;22.76
70214;DHT22;60138;55.808;37.078;2023-05-18T12:24:05;29.74;19.69
70214;DHT22;60138;55.808;37.078;2023-05-18T12:26:31;30.72;18.28
70214;DHT22;60138;55.808;37.078;2023-05-18T12:28:59;32.38;16.62
70214;DHT22;60138;55.808;37.078;2023-05-18T12:31:25;32.52;17.77
70214;DHT22;60138;55.808;37.078;2023-05-18T12:33:52;32.47;16.74
70214;DHT22;60138;55.808;37.078;2023-05-18T12:36:18;31.20;18.45
70214;DHT22;60138;55.808;37.078;2023-05-18T12:38:47;30.53;20.42
70214;DHT22;60138;55.808;37.078;2023-05-18T12:41:21;30.52;18.67
70214;DHT22;60138;55.808;37.078;2023-05-18T12:43:46;30.84;20.90
70214;DHT22;60138;55.808;37.078;2023-05-18T12:46:12;30.52;18.36
70214;DHT22;60138;55.808;37.078;2023-05-18T12:48:44;29.94;19.47
70214;DHT22;60138;55.808;37.078;2023-05-18T12:51:20;29.77;19.86
70214;DHT22;60138;55.808;37.078;2023-05-18T12:53:47;31.42;18.73
70214;DHT22;60138;55.808;37.078;2023-05-18T12:56:13;32.32;20.34
70214;DHT22;60138;55.808;37.078;2023-05-18T12:58:39;32.89;18.96
70214;DHT22;60138;55.808;37.078;2023-05-18T13:01:08;33.74;18.16
70214;DHT22;60138;55.808;37.078;2023-05-18T13:03:37;33.52;18.60
70214;DHT22;60138;55.808;37.078;2023-05-18T13:06:07;33.91;20.07
70214;DHT22;60138;55.808;37.078;2023-05-18T13:08:34;34.23;19.51
70214;DHT22;60138;55.808;37.078;2023-05-18T13:11:09;34.45;20.54
70214;DHT22;60138;55.808;37.078;2023-05-18T13:13:34;33.43;19.37
70214;DHT22;60138;55.808;37.078;2023-05-18T13:16:00;31.55;21.75
70214;DHT22;60138;55.808;37.078;2023-05-18T13:18:26;30.50;23.69
70214;DHT22;60138;55.808;37.078;2023-05-18T13:20:55;29.70;24.62
70214;DHT22;60138;55.808;37.078;2023-05-18T13:23:22;29.26;24.89
70214;DHT22;60138;55.808;37.078;2023-05-18T13:25:49;29.15;25.50
70214;DHT22;60138;55.808;37.078;2023-05-18T13:28:18;29.39;25.68
70214;DHT22;60138;55.808;37.078;2023-05-18T13:30:45;28.58;27.07
70214;DHT22;60138;55.808;37.078;2023-05-18T13:33:11;27.70;28.24
70214;DHT22;60138;55.808;37.078;2023-05-18T13:35:59;27.27;29.61
70214;DHT22;60138;55.808;37.078;2023-05-18T13:38:25;27.91;28.12
70214;DHT22;60138;55.808;37.078;2023-05-18T13:40:50;28.38;27.53
70214;DHT22;60138;55.808;37.078;2023-05-18T13:43:16;28.01;27.81
70214;DHT22;60138;55.808;37.078;2023-05-18T13:45:42;28.97;26.75
70214;DHT22;60138;55.808;37.078;2023-05-18T13:48:07;30.05;25.18
70214;DHT22;60138;55.808;37.078;2023-05-18T13:50:33;30.86;24.56
70214;DHT22;60138;55.808;37.078;2023-05-18T13:52:59;31.28;23.50
70214;DHT22;60138;55.808;37.078;2023-05-18T13:55:24;31.40;22.51
70214;DHT22;60138;55.808;37.078;2023-05-18T13:57:50;31.45;22.11
70214;DHT22;60138;55.808;37.078;2023-05-18T14:00:15;31.40;23.24
70214;DHT22;60138;55.808;37.078;2023-05-18T14:02:44;30.62;23.23
70214;DHT22;60138;55.808;37.078;2023-05-18T14:05:10;30.32;24.17
70214;DHT22;60138;55.808;37.078;2023-05-18T14:07:38;30.72;23.49
70214;DHT22;60138;55.808;37.078;2023-05-18T14:10:04;31.01;22.19
70214;DHT22;60138;55.808;37.078;2023-05-18T14:12:30;31.14;22.88
70214;DHT22;60138;55.808;37.078;2023-05-18T14:14:56;29.76;24.08
70214;DHT22;60138;55.808;37.078;2023-05-18T14:17:22;28.87;25.14
70214;DHT22;60138;55.808;37.078;2023-05-18T14:19:47;28.53;25.68
70214;DHT22;60138;55.808;37.078;2023-05-18T14:22:13;28.52;26.27
70214;DHT22;60138;55.808;37.078;2023-05-18T14:24:39;29.27;25.55
70214;DHT22;60138;55.808;37.078;2023-05-18T14:27:04;28.94;25.60
70214;DHT22;60138;55.808;37.078;2023-05-18T14:29:30;28.61;26.00
70214;DHT22;60138;55.808;37.078;2023-05-18T14:31:55;28.43;26.22
70214;DHT22;60138;55.808;37.078;2023-05-18T14:34:21;28.95;25.65
70214;DHT22;60138;55.808;37.078;2023-05-18T14:36:47;28.94;25.53
70214;DHT22;60138;55.808;37.078;2023-05-18T14:39:12;28.01;27.39
70214;DHT22;60138;55.808;37.078;2023-05-18T14:41:38;27.31;27.89
70214;DHT22;60138;55.808;37.078;2023-05-18T14:44:03;26.73;27.31
70214;DHT22;60138;55.808;37.078;2023-05-18T14:46:29;27.19;27.62
70214;DHT22;60138;55.808;37.078;2023-05-18T14:48:55;27.27;26.81
70214;DHT22;60138;55.808;37.078;2023-05-18T14:51:21;27.85;26.77
70214;DHT22;60138;55.808;37.078;2023-05-18T14:53:46;28.19;26.71
70214;DHT22;60138;55.808;37.078;2023-05-18T14:56:12;28.14;26.52
70214;DHT22;60138;55.808;37.078;2023-05-18T14:58:37;28.21;26.19
70214;DHT22;60138;55.808;37.078;2023-05-18T15:01:03;28.52;26.45
70214;DHT22;60138;55.808;37.078;2023-05-18T15:03:28;28.47;25.65
70214;DHT22;60138;55.808;37.078;2023-05-18T15:05:54;28.04;26.26
70214;DHT22;60138;55.808;37.078;2023-05-18T15:08:20;27.76;27.42
70214;DHT22;60138;55.808;37.078;2023-05-18T15:10:45;27.02;29.54
70214;DHT22;60138;55.808;37.078;2023-05-18T15:13:11;26.60;30.51
70214;DHT22;60138;55.808;37.078;2023-05-18T15:15:36;26.07;32.28
70214;DHT22;60138;55.808;37.078;2023-05-18T15:18:02;25.20;33.69
70214;DHT22;60138;55.808;37.078;2023-05-18T15:20:28;24.87;34.95
70214;DHT22;60138;55.808;37.078;2023-05-18T15:22:53;24.69;35.47
70214;DHT22;60138;55.808;37.078;2023-05-18T15:25:19;24.55;33.58
70214;DHT22;60138;55.808;37.078;2023-05-18T15:27:44;24.26;36.51
70214;DHT22;60138;55.808;37.078;2023-05-18T15:30:10;23.83;37.65
70214;DHT22;60138;55.808;37.078;2023-05-18T15:32:37;23.52;38.40
70214;DHT22;60138;55.808;37.078;2023-05-18T15:35:03;23.43;34.83